Time;durP1;ratioP1;P1;durP2;ratioP2;P2;SDS_P1;SDS_P2;PMS_P1;PMS_P2;Temp;Humidity;BMP_temperature;BMP_pressure;BME280_temperature;BME280_humidity;BME280_pressure;Samples;Min_cycle;Max_cycle;Signal;HPM_P1;HPM_P2
2022/01/19 00:01:56;;;;;;;18.92;11.57;;;5.70;99.90;;;;;;5025708;28;20401;-84
2022/01/19 00:04:22;;;;;;;22.02;11.70;;;5.80;99.90;;;;;;5025524;28;20402;-84
2022/01/19 00:06:47;;;;;;;17.80;11.00;;;5.70;99.90;;;;;;5026788;28;20381;-83
2022/01/19 00:09:13;;;;;;;17.40;11.03;;;5.70;99.90;;;;;;5025766;28;20501;-85
2022/01/19 00:11:39;;;;;;;18.55;10.70;;;5.80;99.90;;;;;;5026553;28;20419;-85
2022/01/19 00:14:04;;;;;;;19.63;11.20;;;6.00;99.90;;;;;;5024628;28;20822;-84
2022/01/19 00:16:30;;;;;;;17.00;11.17;;;5.80;99.90;;;;;;5027584;28;20390;-83
2022/01/19 00:18:55;;;;;;;17.70;11.30;;;5.80;99.90;;;;;;5031445;28;20458;-85
2022/01/19 00:21:21;;;;;;;19.27;11.40;;;5.70;99.90;;;;;;5025733;28;20396;-85
2022/01/19 00:23:48;;;;;;;21.70;12.05;;;5.70;99.90;;;;;;5026076;28;20429;-83
2022/01/19 00:26:13;;;;;;;18.83;11.10;;;6.10;99.90;;;;;;5025275;28;20386;-84
2022/01/19 00:28:39;;;;;;;19.08;11.48;;;5.80;99.90;;;;;;5026474;28;20398;-84
2022/01/19 00:31:05;;;;;;;20.43;11.90;;;5.80;99.90;;;;;;5025176;28;20871;-84
2022/01/19 00:33:30;;;;;;;19.77;11.47;;;5.70;99.90;;;;;;5025141;28;20438;-83
2022/01/19 00:35:56;;;;;;;20.10;11.52;;;5.80;99.90;;;;;;5026780;28;20407;-85
2022/01/19 00:38:21;;;;;;;19.85;12.05;;;5.70;99.90;;;;;;5026220;28;20468;-84
2022/01/19 00:40:48;;;;;;;18.50;11.70;;;5.70;99.90;;;;;;5024910;28;20525;-85
2022/01/19 00:43:15;;;;;;;20.13;12.00;;;5.70;99.90;;;;;;5026862;28;20731;-85
2022/01/19 00:45:41;;;;;;;21.63;12.25;;;6.00;99.90;;;;;;5025038;28;20394;-83
2022/01/19 00:48:07;;;;;;;20.67;12.02;;;6.20;99.90;;;;;;5025113;28;20760;-85
2022/01/19 00:50:32;;;;;;;20.83;12.40;;;5.80;99.90;;;;;;5026678;28;20374;-84
2022/01/19 00:52:58;;;;;;;20.65;13.15;;;5.70;99.90;;;;;;5024517;28;20381;-85
2022/01/19 00:55:25;;;;;;;23.70;14.30;;;5.70;99.90;;;;;;5024830;28;20887;-85
2022/01/19 00:57:51;;;;;;;22.52;13.63;;;5.70;99.90;;;;;;5026003;28;20425;-84
2022/01/19 01:00:20;;;;;;;20.17;14.05;;;5.70;99.90;;;;;;5024621;28;20378;-85
2022/01/19 01:02:45;;;;;;;23.40;14.30;;;5.70;99.90;;;;;;5025900;28;20370;-83
2022/01/19 01:05:11;;;;;;;23.20;14.50;;;5.70;99.90;;;;;;5025854;28;20770;-85
2022/01/19 01:07:38;;;;;;;20.77;13.60;;;5.80;99.90;;;;;;5024487;28;20432;-84
2022/01/19 01:10:07;;;;;;;24.10;14.57;;;5.90;99.90;;;;;;5025476;28;20480;-85
2022/01/19 01:12:47;;;;;;;22.58;14.18;;;5.90;99.90;;;;;;5024077;28;20887;-85
2022/01/19 01:15:48;;;;;;;22.27;14.27;;;5.80;99.90;;;;;;5025553;28;20743;-87
2022/01/19 01:18:22;;;;;;;23.67;15.68;;;5.80;99.90;;;;;;5004803;28;20441;-84
2022/01/19 01:20:53;;;;;;;24.88;15.60;;;5.80;99.90;;;;;;5011298;28;20422;-85
2022/01/19 01:23:22;;;;;;;26.30;16.98;;;5.80;99.90;;;;;;5010613;28;20390;-86
2022/01/19 01:25:48;;;;;;;26.42;17.30;;;5.70;99.90;;;;;;5026453;28;20886;-83
2022/01/19 01:28:15;;;;;;;29.00;17.63;;;5.90;99.90;;;;;;5028826;28;20500;-86
2022/01/19 01:30:41;;;;;;;27.25;18.23;;;5.60;99.90;;;;;;5029072;28;20377;-85
2022/01/19 01:33:07;;;;;;;26.95;17.65;;;5.60;99.90;;;;;;5028151;28;20385;-84
2022/01/19 01:35:33;;;;;;;27.77;18.57;;;5.60;99.90;;;;;;5028355;28;20811;-85
2022/01/19 01:37:59;;;;;;;27.83;18.80;;;5.60;99.90;;;;;;5027911;28;20486;-85
2022/01/19 01:40:26;;;;;;;29.20;17.97;;;5.70;99.90;;;;;;5027952;28;20531;-85
2022/01/19 01:42:56;;;;;;;32.83;19.20;;;5.70;99.90;;;;;;5028390;28;20393;-86
2022/01/19 01:45:27;;;;;;;28.58;18.05;;;5.70;99.90;;;;;;5028477;28;20875;-85
2022/01/19 01:48:04;;;;;;;29.30;18.27;;;5.80;99.90;;;;;;5028642;28;20394;-85
2022/01/19 01:53:27;;;;;;;29.08;17.98;;;6.00;99.90;;;;;;5028731;28;20506;-84
2022/01/19 01:56:04;;;;;;;29.15;18.27;;;5.70;99.90;;;;;;5028550;28;20424;-86
2022/01/19 01:58:35;;;;;;;26.00;17.53;;;5.90;99.90;;;;;;5029064;28;20382;-84
2022/01/19 02:01:01;;;;;;;27.90;16.50;;;5.70;99.90;;;;;;5020862;28;20397;-85
2022/01/19 02:03:27;;;;;;;29.27;17.25;;;5.70;99.90;;;;;;5028655;28;20841;-84
2022/01/19 02:08:35;;;;;;;28.60;17.92;;;5.60;99.90;;;;;;5028394;28;20390;-84
2022/01/19 02:15:48;;;;;;;30.02;17.52;;;5.60;99.90;;;;;;5028262;28;20499;-86
2022/01/19 02:22:00;;;;;;;30.92;17.77;;;5.80;99.90;;;;;;5028032;28;20454;-85
2022/01/19 02:24:32;;;;;;;25.95;16.70;;;5.70;99.90;;;;;;5026810;28;20413;-84
2022/01/19 02:27:10;;;;;;;29.88;17.20;;;6.00;99.90;;;;;;5026629;28;20390;-83
2022/01/19 02:40:33;;;;;;;32.13;17.80;;;5.80;99.90;;;;;;5048139;28;20865;-85
2022/01/19 02:50:58;;;;;;;35.15;17.27;;;5.70;99.90;;;;;;5027574;28;20535;-84
2022/01/19 02:53:23;;;;;;;26.10;17.55;;;5.80;99.90;;;;;;5026619;28;20481;-84
2022/01/19 02:55:49;;;;;;;27.90;17.93;;;5.70;99.90;;;;;;5026752;28;20409;-85
2022/01/19 02:58:18;;;;;;;30.27;16.95;;;5.70;99.90;;;;;;5027989;28;20390;-85
2022/01/19 03:08:41;;;;;;;31.65;16.90;;;5.80;99.90;;;;;;5028072;28;20419;-82
2022/01/19 03:09:02;;;;;;;26.25;16.80;;;5.60;99.90;;;;;;5028616;28;20386;-85
2022/01/19 03:11:28;;;;;;;29.70;17.77;;;5.60;99.90;;;;;;5028380;28;20955;-83
2022/01/19 03:13:54;;;;;;;28.85;16.45;;;5.70;99.90;;;;;;5027691;28;20427;-83
2022/01/19 03:16:21;;;;;;;26.15;15.82;;;5.60;99.90;;;;;;5026712;28;20378;-86
2022/01/19 03:18:48;;;;;;;26.27;16.55;;;5.80;99.90;;;;;;5026305;28;20386;-85
2022/01/19 03:21:15;;;;;;;25.08;15.60;;;5.60;99.90;;;;;;5025992;28;20410;-85
2022/01/19 03:23:41;;;;;;;28.08;16.60;;;5.80;99.90;;;;;;5026169;28;20421;-85
2022/01/19 03:26:07;;;;;;;26.30;15.93;;;6.00;99.90;;;;;;5026442;28;20398;-83
2022/01/19 03:28:34;;;;;;;29.63;16.02;;;5.60;99.90;;;;;;5027705;28;20386;-84
2022/01/19 03:31:00;;;;;;;25.55;16.38;;;5.80;99.90;;;;;;5025514;28;20398;-86
2022/01/19 03:33:26;;;;;;;26.52;15.57;;;5.80;99.90;;;;;;5026034;28;20366;-84
2022/01/19 03:35:52;;;;;;;23.33;15.35;;;5.80;99.90;;;;;;5026628;28;20392;-85
2022/01/19 03:38:18;;;;;;;28.05;16.65;;;5.70;99.90;;;;;;5026960;28;20428;-85
2022/01/19 03:40:44;;;;;;;26.38;16.63;;;5.80;99.90;;;;;;5027034;28;20398;-83
2022/01/19 03:43:10;;;;;;;27.27;17.85;;;5.80;99.90;;;;;;5026868;28;20753;-84
2022/01/19 03:45:36;;;;;;;26.90;16.85;;;5.50;99.90;;;;;;5025537;28;20409;-86
2022/01/19 03:50:47;;;;;;;28.10;18.67;;;5.70;99.90;;;;;;5026408;28;20744;-84
2022/01/19 03:53:13;;;;;;;30.58;19.17;;;5.60;99.90;;;;;;5026495;28;20386;-85
2022/01/19 03:55:38;;;;;;;26.58;18.40;;;5.60;99.90;;;;;;5025381;28;20814;-85
2022/01/19 03:58:04;;;;;;;32.10;19.37;;;5.60;99.90;;;;;;5026239;28;20429;-84
2022/01/19 04:00:34;;;;;;;28.23;18.37;;;5.50;99.90;;;;;;5026927;28;20426;-84
2022/01/19 04:03:00;;;;;;;31.85;19.98;;;5.50;99.90;;;;;;5027208;28;20422;-84
2022/01/19 04:05:39;;;;;;;26.85;18.33;;;5.50;99.90;;;;;;5026907;28;20405;-85
2022/01/19 04:08:05;;;;;;;27.83;18.42;;;5.50;99.90;;;;;;5025073;28;20392;-85
2022/01/19 04:10:30;;;;;;;31.90;19.37;;;5.70;99.90;;;;;;5025266;28;20377;-84
2022/01/19 04:13:09;;;;;;;28.53;19.80;;;5.70;99.90;;;;;;5026717;28;20382;-87
2022/01/19 04:15:36;;;;;;;30.33;21.20;;;5.60;99.90;;;;;;5025378;28;20432;-85
2022/01/19 04:18:03;;;;;;;31.27;21.15;;;5.90;99.90;;;;;;5026809;28;20468;-85
2022/01/19 04:20:28;;;;;;;33.28;21.88;;;5.90;99.90;;;;;;5025139;28;20548;-84
2022/01/19 04:22:54;;;;;;;33.63;20.95;;;5.40;99.90;;;;;;5026293;28;20931;-85
2022/01/19 04:25:20;;;;;;;30.27;20.50;;;5.50;99.90;;;;;;5025280;28;20409;-84
2022/01/19 04:27:46;;;;;;;32.33;22.17;;;5.50;99.90;;;;;;5025314;28;20392;-85
2022/01/19 04:30:13;;;;;;;35.07;22.33;;;5.60;99.90;;;;;;5025163;28;20409;-83
2022/01/19 04:33:03;;;;;;;31.00;21.75;;;5.60;99.90;;;;;;5026441;28;20794;-85
2022/01/19 04:35:33;;;;;;;32.65;22.63;;;5.60;99.90;;;;;;5025250;28;20442;-84
2022/01/19 04:54:10;;;;;;;34.90;25.43;;;5.70;99.90;;;;;;5026073;28;20376;-84
2022/01/19 05:07:42;;;;;;;35.00;27.08;;;5.60;99.90;;;;;;5025528;28;20398;-84
2022/01/19 05:15:54;;;;;;;36.05;27.25;;;5.60;99.90;;;;;;5066104;28;20417;-86
2022/01/19 05:18:20;;;;;;;37.67;26.83;;;5.40;99.90;;;;;;5033107;28;20979;-85
2022/01/19 05:20:47;;;;;;;40.58;29.10;;;5.30;99.90;;;;;;5026034;28;20790;-85
2022/01/19 05:23:14;;;;;;;38.92;27.92;;;5.30;99.90;;;;;;5024682;28;20466;-84
2022/01/19 05:25:40;;;;;;;39.30;27.25;;;5.30;99.90;;;;;;5026294;28;20393;-84
2022/01/19 05:28:06;;;;;;;39.07;28.00;;;5.30;99.90;;;;;;5025472;28;20803;-84
2022/01/19 05:30:31;;;;;;;37.10;28.10;;;5.30;99.90;;;;;;5024480;28;20386;-84
2022/01/19 05:32:57;;;;;;;40.33;28.67;;;5.50;99.90;;;;;;5024366;28;20374;-84
2022/01/19 05:35:24;;;;;;;39.47;27.25;;;5.40;99.90;;;;;;5025025;28;20871;-87
2022/01/19 05:37:50;;;;;;;34.45;27.02;;;5.60;99.90;;;;;;5025342;28;20472;-86
2022/01/19 05:40:17;;;;;;;37.05;28.20;;;5.40;99.90;;;;;;5024642;28;20473;-85
2022/01/19 05:42:43;;;;;;;39.47;29.52;;;5.50;99.90;;;;;;5025430;27;20401;-84
2022/01/19 05:45:09;;;;;;;39.40;28.88;;;5.40;99.90;;;;;;5024218;28;20401;-84
2022/01/19 05:47:35;;;;;;;43.70;30.30;;;5.40;99.90;;;;;;5025524;28;20374;-86
2022/01/19 05:50:00;;;;;;;41.13;29.02;;;5.40;99.90;;;;;;5025118;28;20395;-83
2022/01/19 05:52:26;;;;;;;38.10;28.10;;;5.40;99.90;;;;;;5023467;28;20389;-84
2022/01/19 05:54:52;;;;;;;38.35;29.05;;;5.50;99.90;;;;;;5025037;28;20389;-84
2022/01/19 05:57:19;;;;;;;41.40;28.83;;;5.50;99.90;;;;;;5024847;28;20454;-83
2022/01/19 05:59:46;;;;;;;39.22;28.98;;;5.70;99.90;;;;;;5024797;28;20801;-85
2022/01/19 06:02:12;;;;;;;40.97;31.65;;;5.40;99.90;;;;;;5023925;28;20385;-85
2022/01/19 06:04:38;;;;;;;42.50;32.08;;;5.50;99.90;;;;;;5023946;28;20460;-84
2022/01/19 06:07:03;;;;;;;38.65;29.40;;;5.10;99.90;;;;;;5024253;28;21053;-86
2022/01/19 06:11:57;;;;;;;36.50;29.52;;;5.50;99.90;;;;;;5026356;28;20397;-85
2022/01/19 06:14:23;;;;;;;37.80;29.07;;;5.70;99.90;;;;;;5028294;28;20461;-84
2022/01/19 06:16:49;;;;;;;40.35;30.08;;;5.30;99.90;;;;;;5028277;28;20399;-85
2022/01/19 06:19:19;;;;;;;37.75;29.65;;;5.40;99.90;;;;;;5028134;28;20390;-85
2022/01/19 06:21:45;;;;;;;42.28;30.63;;;5.80;99.90;;;;;;5026578;28;20404;-85
2022/01/19 06:24:10;;;;;;;36.45;29.08;;;5.40;99.90;;;;;;5027969;28;20406;-84
2022/01/19 06:26:38;;;;;;;38.78;30.60;;;5.40;99.90;;;;;;5028475;28;20793;-84
2022/01/19 06:29:04;;;;;;;40.75;30.60;;;5.30;99.90;;;;;;5025495;28;20451;-85
2022/01/19 06:31:30;;;;;;;42.65;30.70;;;5.30;99.90;;;;;;5026453;28;20421;-85
2022/01/19 06:33:55;;;;;;;41.27;28.00;;;5.30;99.90;;;;;;5027165;28;20759;-84
2022/01/19 06:36:21;;;;;;;37.53;28.03;;;5.20;99.90;;;;;;5028045;28;20791;-85
2022/01/19 06:38:47;;;;;;;37.47;26.67;;;5.20;99.90;;;;;;5028062;28;20393;-84
2022/01/19 06:41:12;;;;;;;39.47;28.48;;;5.30;99.90;;;;;;5026253;28;20405;-83
2022/01/19 06:43:38;;;;;;;40.40;28.17;;;5.20;99.90;;;;;;5026508;28;20409;-84
2022/01/19 06:46:04;;;;;;;38.37;28.40;;;5.30;99.90;;;;;;5026653;28;20769;-85
2022/01/19 06:48:30;;;;;;;39.10;28.15;;;5.20;99.90;;;;;;5026760;28;20390;-83
2022/01/19 06:50:56;;;;;;;39.97;28.35;;;5.10;99.90;;;;;;5028060;28;20421;-83
2022/01/19 06:53:22;;;;;;;35.95;27.63;;;5.00;99.90;;;;;;5026822;28;20382;-85
2022/01/19 06:55:47;;;;;;;37.57;26.23;;;5.20;99.90;;;;;;5026543;28;20423;-84
2022/01/19 06:58:13;;;;;;;38.03;25.27;;;5.10;99.90;;;;;;5027220;28;20405;-84
2022/01/19 07:00:39;;;;;;;34.92;24.27;;;5.20;99.90;;;;;;5027700;28;20413;-85
2022/01/19 07:03:04;;;;;;;38.03;24.00;;;5.00;99.90;;;;;;5028007;28;20390;-87
2022/01/19 07:05:30;;;;;;;30.87;23.17;;;4.90;99.90;;;;;;5026986;28;20401;-84
2022/01/19 07:07:57;;;;;;;36.80;22.50;;;4.90;99.90;;;;;;5028529;28;20491;-83
2022/01/19 07:10:23;;;;;;;34.83;21.88;;;4.90;99.90;;;;;;5027727;28;20395;-86
2022/01/19 07:12:51;;;;;;;32.17;21.17;;;4.90;99.90;;;;;;5026937;28;20401;-85
2022/01/19 07:15:16;;;;;;;28.53;20.53;;;4.80;99.90;;;;;;5028558;28;20370;-86
2022/01/19 07:17:42;;;;;;;33.93;21.03;;;5.00;99.90;;;;;;5029578;28;20735;-82
2022/01/19 07:20:08;;;;;;;32.10;21.80;;;4.80;99.90;;;;;;5030971;28;20506;-83
2022/01/19 07:22:34;;;;;;;30.77;20.88;;;4.90;99.90;;;;;;5027831;28;20442;-85
2022/01/19 07:25:00;;;;;;;30.90;20.73;;;4.90;99.90;;;;;;5024898;28;20409;-84
2022/01/19 07:27:26;;;;;;;27.25;19.65;;;5.00;99.90;;;;;;5026163;28;20390;-84
2022/01/19 07:29:52;;;;;;;30.20;19.70;;;5.00;99.90;;;;;;5025946;28;20386;-85
2022/01/19 07:32:19;;;;;;;30.20;19.27;;;5.00;99.90;;;;;;5025166;28;20378;-83
2022/01/19 07:34:45;;;;;;;28.92;18.60;;;5.10;99.90;;;;;;5027288;28;20765;-85
2022/01/19 07:37:11;;;;;;;28.90;18.33;;;4.90;99.90;;;;;;5026318;28;20413;-83
2022/01/19 07:39:37;;;;;;;26.27;17.92;;;5.00;99.90;;;;;;5032841;28;20421;-84
2022/01/19 07:42:03;;;;;;;26.70;18.38;;;5.30;99.90;;;;;;5025731;28;20933;-85
2022/01/19 07:44:29;;;;;;;26.57;18.07;;;5.20;99.90;;;;;;5025409;28;21023;-84
2022/01/19 07:46:54;;;;;;;25.23;18.60;;;5.10;99.90;;;;;;5026660;28;20369;-84
2022/01/19 07:49:20;;;;;;;30.67;18.42;;;5.10;99.90;;;;;;5026854;28;20380;-85
2022/01/19 07:51:46;;;;;;;31.80;18.55;;;5.00;99.90;;;;;;5026746;28;20784;-84
2022/01/19 07:54:12;;;;;;;24.85;16.27;;;5.10;99.90;;;;;;5025697;28;20393;-83
2022/01/19 07:56:38;;;;;;;27.55;16.63;;;5.10;99.90;;;;;;5025290;28;20382;-84
2022/01/19 07:59:04;;;;;;;26.77;15.77;;;5.30;99.90;;;;;;5026571;28;20397;-85
2022/01/19 08:01:31;;;;;;;29.60;15.90;;;5.10;99.90;;;;;;5025990;28;20380;-85
2022/01/19 08:03:58;;;;;;;23.23;14.95;;;5.10;99.90;;;;;;5023097;28;20990;-84
2022/01/19 08:06:24;;;;;;;25.60;14.57;;;5.20;99.90;;;;;;5027250;28;20439;-85
2022/01/19 08:08:49;;;;;;;24.20;15.57;;;5.20;99.90;;;;;;5026923;28;20724;-83
2022/01/19 08:11:15;;;;;;;25.67;14.30;;;5.20;99.90;;;;;;5026463;28;20385;-85
2022/01/19 08:13:41;;;;;;;21.00;14.23;;;5.30;99.90;;;;;;5023656;28;20425;-85
2022/01/19 08:16:07;;;;;;;22.43;14.33;;;4.90;99.90;;;;;;5025218;28;20893;-84
2022/01/19 08:18:32;;;;;;;22.52;15.18;;;4.90;99.90;;;;;;5023710;28;20417;-83
2022/01/19 08:20:58;;;;;;;26.60;15.50;;;4.90;99.90;;;;;;5026887;28;20756;-83
2022/01/19 08:23:24;;;;;;;24.30;15.53;;;5.00;99.90;;;;;;5027146;28;20377;-85
2022/01/19 08:25:49;;;;;;;22.70;15.32;;;4.70;99.90;;;;;;5027160;28;20429;-85
2022/01/19 08:28:15;;;;;;;24.87;14.93;;;4.90;99.90;;;;;;5027087;28;20382;-82
2022/01/19 08:30:41;;;;;;;23.77;15.07;;;4.70;99.90;;;;;;5029173;28;20465;-84
2022/01/19 08:33:06;;;;;;;22.13;14.55;;;4.60;99.90;;;;;;5028453;28;20381;-83
2022/01/19 08:35:32;;;;;;;23.63;15.52;;;4.60;99.90;;;;;;5025027;28;20378;-85
2022/01/19 08:37:58;;;;;;;25.00;14.40;;;4.60;99.90;;;;;;5024957;28;20413;-84
2022/01/19 08:40:29;;;;;;;20.93;14.10;;;4.90;99.90;;;;;;5026866;28;20419;-84
2022/01/19 08:42:54;;;;;;;24.50;14.43;;;4.70;99.90;;;;;;5022618;28;20809;-84
2022/01/19 08:45:22;;;;;;;21.57;14.40;;;4.60;99.90;;;;;;5007385;28;20462;-86
2022/01/19 08:47:50;;;;;;;23.20;14.50;;;4.70;99.90;;;;;;5021446;28;20397;-84
2022/01/19 08:50:16;;;;;;;20.83;15.03;;;4.60;99.90;;;;;;5024590;28;20464;-85
2022/01/19 08:52:43;;;;;;;23.50;15.70;;;4.40;99.90;;;;;;5026458;28;20940;-83
2022/01/19 08:55:09;;;;;;;22.50;15.05;;;4.70;99.90;;;;;;5026235;28;20748;-84
2022/01/19 08:57:35;;;;;;;25.40;15.05;;;4.60;99.90;;;;;;5024855;28;20835;-85
2022/01/19 09:00:02;;;;;;;22.30;15.20;;;4.70;99.90;;;;;;5025996;28;20482;-84
2022/01/19 09:02:27;;;;;;;23.08;14.93;;;4.70;99.90;;;;;;5024866;28;20404;-83
2022/01/19 09:04:53;;;;;;;21.13;14.13;;;4.80;99.90;;;;;;5026209;28;20756;-86
2022/01/19 09:07:20;;;;;;;22.07;14.73;;;4.80;99.90;;;;;;5026658;28;20377;-84
2022/01/19 09:09:46;;;;;;;19.80;13.63;;;4.90;99.90;;;;;;5024423;28;20793;-85
2022/01/19 09:12:11;;;;;;;23.02;13.98;;;5.10;99.90;;;;;;5024832;28;20381;-86
2022/01/19 09:14:37;;;;;;;19.48;13.35;;;5.00;99.90;;;;;;5024823;28;21097;-85
2022/01/19 09:17:07;;;;;;;20.85;13.90;;;5.00;99.90;;;;;;5027126;28;20467;-86
2022/01/19 09:19:35;;;;;;;22.02;14.73;;;5.10;99.90;;;;;;5024626;28;20410;-84
2022/01/19 09:22:03;;;;;;;21.40;13.70;;;5.10;99.90;;;;;;5021702;28;20974;-85
2022/01/19 09:24:29;;;;;;;20.65;14.13;;;5.40;99.90;;;;;;5017362;28;20914;-86
2022/01/19 09:26:55;;;;;;;21.48;14.60;;;5.20;99.90;;;;;;5024143;28;20443;-86
2022/01/19 09:29:21;;;;;;;19.05;14.05;;;5.30;99.90;;;;;;5024952;28;20732;-84
2022/01/19 09:31:47;;;;;;;17.67;13.07;;;5.30;99.90;;;;;;5025654;28;20377;-84
2022/01/19 09:34:15;;;;;;;18.33;13.95;;;5.40;99.90;;;;;;5028953;28;20460;-83
2022/01/19 09:36:46;;;;;;;19.97;12.90;;;5.40;99.90;;;;;;5030951;28;20405;-84
2022/01/19 09:39:15;;;;;;;20.17;13.67;;;5.40;99.90;;;;;;5027197;28;20423;-84
2022/01/19 09:41:41;;;;;;;19.55;13.43;;;5.40;99.90;;;;;;5025275;28;20468;-84
2022/01/19 09:44:11;;;;;;;19.88;13.98;;;5.50;99.90;;;;;;5023908;28;20405;-85
2022/01/19 09:46:37;;;;;;;19.70;13.82;;;5.50;99.90;;;;;;5010438;28;20771;-85
2022/01/19 09:49:05;;;;;;;18.65;14.18;;;5.50;99.90;;;;;;5009014;28;20885;-82
2022/01/19 09:51:31;;;;;;;15.93;13.10;;;5.60;99.90;;;;;;5030929;28;20479;-84
2022/01/19 09:53:56;;;;;;;17.50;13.20;;;5.60;99.90;;;;;;5028835;28;20386;-84
2022/01/19 09:56:22;;;;;;;18.38;13.15;;;5.70;99.90;;;;;;5029339;28;20377;-83
2022/01/19 09:58:48;;;;;;;16.00;12.45;;;5.80;99.90;;;;;;5027573;28;20386;-83
2022/01/19 10:01:21;;;;;;;18.50;13.03;;;5.90;99.90;;;;;;5026316;28;20413;-84
2022/01/19 10:03:47;;;;;;;19.23;13.07;;;5.90;99.90;;;;;;5017200;28;20401;-83
2022/01/19 10:06:15;;;;;;;17.45;13.05;;;5.80;99.90;;;;;;5028332;28;20727;-84
2022/01/19 10:08:45;;;;;;;18.17;13.57;;;6.30;99.90;;;;;;5027798;28;20392;-83
2022/01/19 10:16:58;;;;;;;17.93;13.03;;;6.00;99.90;;;;;;5008844;28;20403;-83
2022/01/19 10:17:06;;;;;;;16.05;12.35;;;6.20;99.90;;;;;;5029179;28;20742;-83
2022/01/19 10:19:41;;;;;;;18.25;12.93;;;6.50;99.90;;;;;;5010305;28;20448;-82
2022/01/19 10:22:12;;;;;;;17.13;13.67;;;6.20;99.90;;;;;;5014797;28;20401;-85
2022/01/19 10:24:50;;;;;;;16.55;13.57;;;6.00;99.90;;;;;;5027892;28;20887;-85
2022/01/19 10:27:34;;;;;;;16.35;13.73;;;6.00;99.90;;;;;;5019588;28;20415;-85
2022/01/19 10:30:03;;;;;;;15.70;13.67;;;6.20;99.90;;;;;;5014099;28;20414;-85
2022/01/19 10:32:33;;;;;;;18.17;13.35;;;6.30;99.90;;;;;;5019710;28;20382;-83
2022/01/19 10:35:17;;;;;;;16.40;13.07;;;6.20;99.90;;;;;;5031240;28;20373;-83
2022/01/19 10:37:44;;;;;;;16.00;13.27;;;6.20;99.90;;;;;;5030518;28;21025;-85
2022/01/19 10:40:20;;;;;;;15.25;13.65;;;6.20;99.90;;;;;;5029353;28;20446;-83
2022/01/19 10:42:49;;;;;;;16.33;12.73;;;6.30;99.90;;;;;;5029690;28;20419;-84
2022/01/19 10:45:16;;;;;;;15.48;13.50;;;6.30;99.90;;;;;;5028010;28;20440;-84
2022/01/19 10:47:56;;;;;;;15.45;12.38;;;6.10;99.90;;;;;;5021363;28;20402;-84
2022/01/19 10:50:31;;;;;;;16.23;13.48;;;6.10;99.90;;;;;;5030444;28;20469;-85
2022/01/19 10:52:59;;;;;;;14.18;12.68;;;6.20;99.90;;;;;;5029394;28;20397;-83
2022/01/19 10:55:33;;;;;;;17.50;13.95;;;6.10;99.90;;;;;;5029205;28;20398;-83
2022/01/19 10:58:01;;;;;;;18.33;13.82;;;6.00;99.90;;;;;;5031436;28;20489;-83
2022/01/19 11:00:28;;;;;;;15.65;13.38;;;6.10;99.90;;;;;;5029502;28;20393;-84
2022/01/19 11:02:56;;;;;;;15.80;12.93;;;5.70;99.90;;;;;;5027787;28;20394;-86
2022/01/19 11:05:40;;;;;;;16.02;13.70;;;6.00;99.90;;;;;;5026419;28;20416;-84
2022/01/19 11:08:06;;;;;;;16.65;14.15;;;6.00;99.90;;;;;;5030156;28;20376;-84
2022/01/19 11:10:32;;;;;;;15.30;13.35;;;6.20;99.90;;;;;;5027503;28;20390;-83
2022/01/19 11:12:58;;;;;;;15.40;13.75;;;6.10;99.90;;;;;;5026867;28;20724;-84
2022/01/19 11:15:24;;;;;;;17.15;13.85;;;6.00;99.90;;;;;;5026236;28;20410;-84
2022/01/19 11:17:50;;;;;;;15.53;13.87;;;6.10;99.90;;;;;;5029104;28;20382;-85
2022/01/19 11:20:19;;;;;;;16.87;14.23;;;6.20;99.90;;;;;;5008643;28;20393;-84
2022/01/19 11:23:21;;;;;;;16.92;14.32;;;6.10;99.90;;;;;;5028018;28;20393;-85
2022/01/19 11:26:01;;;;;;;15.70;14.10;;;6.10;99.90;;;;;;5024221;28;20413;-83
2022/01/19 11:28:35;;;;;;;16.23;13.73;;;6.10;99.90;;;;;;5025541;28;20493;-82
2022/01/19 11:31:13;;;;;;;15.23;13.52;;;6.20;99.90;;;;;;5026365;28;20424;-83
2022/01/19 11:33:51;;;;;;;14.90;13.38;;;6.20;99.90;;;;;;5027176;28;20449;-83
2022/01/19 11:36:31;;;;;;;14.77;13.27;;;6.30;99.90;;;;;;5026519;28;20528;-84
2022/01/19 11:39:23;;;;;;;15.15;13.65;;;6.30;99.90;;;;;;5028944;28;20402;-84
2022/01/19 11:41:54;;;;;;;15.00;13.40;;;6.10;99.90;;;;;;5030644;28;20454;-84
2022/01/19 11:44:31;;;;;;;14.77;13.27;;;6.00;99.90;;;;;;5028401;28;20476;-84
2022/01/19 11:47:19;;;;;;;14.90;13.40;;;5.90;99.90;;;;;;5025612;28;20811;-84
2022/01/19 11:50:06;;;;;;;14.98;13.57;;;5.90;99.90;;;;;;5026743;28;20398;-84
2022/01/19 11:52:37;;;;;;;17.25;15.40;;;6.20;99.90;;;;;;5028258;28;20735;-84
2022/01/19 11:55:20;;;;;;;16.73;15.13;;;5.90;99.90;;;;;;5027184;28;20390;-84
2022/01/19 11:57:48;;;;;;;16.20;14.70;;;5.90;99.90;;;;;;5024413;28;20550;-83
2022/01/19 12:00:30;;;;;;;16.08;14.57;;;5.80;99.90;;;;;;5027741;28;20425;-81
2022/01/19 12:02:57;;;;;;;18.90;17.00;;;5.70;99.90;;;;;;5026996;28;20544;-84
2022/01/19 12:05:35;;;;;;;17.17;15.50;;;5.60;99.90;;;;;;5027853;28;20414;-84
2022/01/19 12:08:19;;;;;;;18.27;16.58;;;5.60;99.90;;;;;;5027470;28;20373;-84
2022/01/19 12:10:48;;;;;;;18.13;16.47;;;5.60;99.90;;;;;;5026654;28;20434;-83
2022/01/19 12:16:12;;;;;;;18.60;16.90;;;5.20;99.90;;;;;;5012863;28;20753;-83
2022/01/19 12:18:43;;;;;;;19.52;17.73;;;5.20;99.90;;;;;;5024119;28;20393;-84
2022/01/19 12:21:16;;;;;;;19.20;17.50;;;5.10;99.90;;;;;;5026401;28;20782;-85
2022/01/19 12:23:42;;;;;;;19.83;18.13;;;4.90;99.90;;;;;;5028808;28;20378;-83
2022/01/19 12:26:10;;;;;;;21.42;19.42;;;5.00;99.90;;;;;;5028578;28;20374;-83
2022/01/19 12:28:51;;;;;;;21.52;19.73;;;4.80;99.90;;;;;;5029625;28;20440;-83
2022/01/19 12:31:30;;;;;;;21.33;19.52;;;4.70;99.90;;;;;;5030229;28;20425;-83
2022/01/19 12:34:10;;;;;;;22.90;20.90;;;4.60;99.90;;;;;;5014719;28;20390;-83
2022/01/19 12:36:58;;;;;;;22.30;20.40;;;4.50;99.90;;;;;;5034919;28;20389;-82
2022/01/19 12:39:27;;;;;;;21.77;19.98;;;4.50;99.90;;;;;;5032740;28;20476;-84
2022/01/19 12:42:05;;;;;;;21.15;19.23;;;4.50;99.90;;;;;;5034581;28;20386;-84
2022/01/19 12:44:44;;;;;;;19.40;17.80;;;4.50;99.90;;;;;;5031012;28;20419;-83
2022/01/19 12:47:26;;;;;;;18.60;17.10;;;4.50;99.90;;;;;;5028969;28;20450;-84
2022/01/19 12:50:08;;;;;;;18.30;16.70;;;4.80;99.90;;;;;;5028800;28;20445;-85
2022/01/19 12:52:40;;;;;;;17.80;16.20;;;4.30;99.90;;;;;;5030755;27;20577;-83
2022/01/19 12:55:13;;;;;;;17.88;16.27;;;4.30;99.90;;;;;;5029664;28;20453;-84
2022/01/19 12:57:39;;;;;;;17.48;15.88;;;4.30;99.90;;;;;;5028716;28;20409;-84
2022/01/19 13:00:08;;;;;;;17.87;16.37;;;4.40;99.90;;;;;;5029044;28;20755;-83
2022/01/19 13:02:34;;;;;;;17.05;15.65;;;4.40;99.90;;;;;;5029790;28;20433;-83
2022/01/19 13:05:08;;;;;;;17.15;15.55;;;4.30;99.90;;;;;;5028190;28;20405;-83
2022/01/19 13:07:39;;;;;;;16.88;15.38;;;4.40;99.90;;;;;;5025976;28;20392;-84
2022/01/19 13:15:51;;;;;;;13.18;12.05;;;4.50;99.90;;;;;;5026693;28;20374;-84
2022/01/19 13:18:35;;;;;;;13.57;12.38;;;4.70;99.90;;;;;;5026438;28;20389;-83
2022/01/19 13:21:09;;;;;;;13.77;12.52;;;4.50;99.90;;;;;;5024802;28;20394;-83
2022/01/19 13:23:55;;;;;;;12.98;11.82;;;4.50;99.90;;;;;;5029043;28;20863;-83
2022/01/19 13:26:21;;;;;;;13.13;11.95;;;4.50;99.90;;;;;;5030039;28;20412;-84
2022/01/19 13:28:47;;;;;;;13.30;12.07;;;4.50;99.90;;;;;;5027682;28;20460;-82
2022/01/19 13:31:20;;;;;;;14.02;12.73;;;4.60;99.90;;;;;;5028331;28;20511;-85
2022/01/19 13:34:12;;;;;;;12.90;11.80;;;4.70;99.90;;;;;;5028948;28;20382;-85
2022/01/19 13:36:38;;;;;;;12.93;11.80;;;4.70;99.90;;;;;;5029227;28;20388;-84
2022/01/19 13:39:05;;;;;;;12.25;11.15;;;4.60;99.90;;;;;;5031025;28;20736;-84
2022/01/19 13:41:31;;;;;;;12.40;11.30;;;4.80;99.90;;;;;;5028498;28;20393;-85
2022/01/19 13:44:05;;;;;;;12.40;11.20;;;4.70;99.90;;;;;;5029943;28;20405;-84
2022/01/19 13:46:32;;;;;;;12.97;11.77;;;4.60;99.90;;;;;;5030231;28;20452;-84
2022/01/19 13:49:04;;;;;;;12.13;11.02;;;4.70;99.90;;;;;;5026621;28;20397;-85
2022/01/19 13:51:31;;;;;;;11.80;10.80;;;4.80;99.90;;;;;;5029121;28;20484;-85
2022/01/19 13:54:03;;;;;;;11.90;10.80;;;4.60;99.90;;;;;;5029956;28;20395;-84
2022/01/19 13:56:40;;;;;;;12.77;11.40;;;4.60;99.90;;;;;;5029703;28;20389;-86
2022/01/19 13:59:11;;;;;;;12.37;11.27;;;4.70;99.90;;;;;;5030046;28;20377;-84
2022/01/19 14:01:50;;;;;;;12.43;11.33;;;4.70;99.90;;;;;;5029514;27;20469;-86
2022/01/19 14:04:17;;;;;;;11.60;10.60;;;4.70;99.90;;;;;;5029418;28;20439;-85
2022/01/19 14:06:45;;;;;;;12.15;11.00;;;4.80;99.90;;;;;;5029414;27;20468;-85
2022/01/19 14:09:18;;;;;;;12.07;11.05;;;5.30;99.90;;;;;;5010058;28;20384;-83
2022/01/19 14:11:47;;;;;;;12.90;11.77;;;4.90;99.90;;;;;;5008897;28;20472;-83
2022/01/19 14:14:21;;;;;;;13.05;11.75;;;4.80;99.90;;;;;;5009879;28;20424;-84